Lentia, Austria

11:02 PM CEST die 19o April, anno 2015 (GMT +0200)
Linz | | Change Station
CLOSE
Current Station
Airport
Location: Linz Airport,
Elevation: 1027 ft
Nearby Weather Stations

Elev 1027 ft 48.23 °N, 14.19 °E | Updated 12 minutes ago

Clear
Serena
46 °F
Feels Like 46 °F
N
1
Ventus Variabilis Ventus from Variabilis

Hodie
High -- | Low -- °F
--% Chance of Precip.
Yesterday
High -- | Low -- °F
Precip. -- in
6:06 AM 7:58 PM
New, 2% visible
Pressio 30.15 in
Visibilitas -9999.0 milia passuum
Clouds
Frigus in quo Ros apparet 34 °F
Umor 62%
Rainfall 0.00 in
Snow Depth Not available.
UV Not available.
Pollen Not available.
Air Quality Not available.
Flu Activity Not available.
METAR LOWL 192050Z VRB01KT CAVOK 08/01 Q1021 NOSIG

More Conditions Fewer Conditions

Pressio 30.15 in
Visibilitas -9999.0 milia passuum
Clouds
Frigus in quo Ros apparet 34 °F
Umor 62%
Rainfall 0.00 in
Snow Depth Not available.
UV Not available.
Pollen Not available.
Air Quality Not available.
Flu Activity Not available.
METAR LOWL 192050Z VRB01KT CAVOK 08/01 Q1021 NOSIG

More Conditions Fewer Conditions

10-Day Weather Forecast

Almanac

Astronomy

Apr. 19, 2015 Rise Set
Actual Time
Civil Twilight
Nautical Twilight
Astronomical Twilight
Moon
Length Of Visible Light
Length of Day
Tomorrow will be .
, % of the Moon is Illuminated

Today's Extremes

Country Highs Country Lows

Community

WunderPhotos

Upload Photos

1,814,980 photos uploaded!

WunderBlogs® & News

Nearby

Air Quality

  Air Quality AQ Index Pollutant
Not available.

Snow Depth

Station Depth Elevation

Earthquake Activity

City Distance Mag. Time & Date
Minimum magnitude displayed is 2.5.

Coastal Water Temperatures

Locus Calor

Stations

Nearby Weather Stations

Station Location Temp Frigus Venti Frigus in quo Ros apparet Umor Ventus Precip. Elev Renovata Type